createdAt,value
2022-10-05T00:01:21.742Z,177.60
2022-10-05T00:03:50.094Z,178.93
2022-10-05T00:06:19.901Z,187.63
2022-10-05T00:08:48.063Z,180.63
2022-10-05T00:11:18.626Z,181.47
2022-10-05T00:13:47.175Z,183.57
2022-10-05T00:16:19.121Z,179.70
2022-10-05T00:18:49.917Z,182.97
2022-10-05T00:21:22.386Z,179.80
2022-10-05T00:23:52.562Z,178.63
2022-10-05T00:26:22.906Z,182.17
2022-10-05T00:28:51.804Z,181.00
2022-10-05T00:31:23.141Z,184.73
2022-10-05T00:33:52.030Z,192.23
2022-10-05T00:36:21.600Z,183.17
2022-10-05T00:38:49.895Z,182.23
2022-10-05T00:41:24.199Z,180.57
2022-10-05T00:44:18.153Z,216.00
2022-10-05T00:46:55.525Z,223.03
2022-10-05T00:49:40.339Z,240.17
2022-10-05T00:52:22.853Z,263.83
2022-10-05T00:55:00.802Z,277.37
2022-10-05T00:57:41.809Z,292.60
2022-10-05T01:00:13.465Z,309.53
2022-10-05T01:02:53.560Z,335.17
2022-10-05T01:05:40.116Z,341.27
2022-10-05T01:08:22.287Z,300.43
2022-10-05T01:11:02.042Z,263.50
2022-10-05T01:13:35.676Z,225.17
2022-10-05T01:16:12.172Z,198.17
2022-10-05T01:18:48.464Z,206.07
2022-10-05T01:21:20.511Z,186.10
2022-10-05T01:24:31.857Z,195.10
2022-10-05T01:27:14.322Z,235.30
2022-10-05T01:29:50.568Z,220.33
2022-10-05T01:32:26.920Z,216.40
2022-10-05T01:35:05.293Z,193.87
2022-10-05T01:37:43.011Z,221.97
2022-10-05T01:40:20.298Z,189.90
2022-10-05T01:42:59.789Z,186.63
2022-10-05T01:45:37.909Z,181.53
2022-10-05T01:48:10.281Z,182.67
2022-10-05T01:50:53.244Z,183.83
2022-10-05T01:53:35.946Z,183.60
2022-10-05T01:56:11.978Z,191.23
2022-10-05T01:58:49.827Z,172.40
2022-10-05T02:01:27.747Z,160.10
2022-10-05T02:04:03.800Z,161.67
2022-10-05T02:06:37.635Z,162.13
2022-10-05T02:09:12.641Z,188.77
2022-10-05T02:11:43.624Z,177.43
2022-10-05T02:14:14.284Z,176.30
2022-10-05T02:16:47.534Z,182.43
2022-10-05T02:19:21.671Z,200.37
2022-10-05T02:21:53.235Z,216.17
2022-10-05T02:24:25.972Z,218.77
2022-10-05T02:26:56.874Z,219.60
2022-10-05T02:29:29.273Z,210.77
2022-10-05T02:32:05.214Z,201.57
2022-10-05T02:34:39.233Z,202.07
2022-10-05T02:37:27.373Z,191.50
2022-10-05T02:40:20.556Z,184.83
2022-10-05T02:42:57.982Z,177.23
2022-10-05T02:45:39.454Z,180.13
2022-10-05T02:48:16.124Z,189.67
2022-10-05T02:50:55.205Z,183.27
2022-10-05T02:53:34.620Z,179.57
2022-10-05T02:56:14.163Z,179.50
2022-10-05T02:58:46.983Z,175.03
2022-10-05T03:01:24.787Z,184.07
2022-10-05T03:04:05.450Z,187.93
2022-10-05T03:06:39.203Z,187.57
2022-10-05T03:09:09.890Z,189.13
2022-10-05T03:11:47.798Z,184.13
2022-10-05T03:14:24.326Z,173.60
2022-10-05T03:17:06.900Z,180.67
2022-10-05T03:19:51.869Z,162.43
2022-10-05T03:22:34.743Z,158.30
2022-10-05T03:25:41.655Z,155.10
2022-10-05T03:28:16.868Z,178.73
2022-10-05T03:30:52.957Z,159.43
2022-10-05T03:33:29.638Z,158.10
2022-10-05T03:36:12.448Z,162.93
2022-10-05T03:38:45.019Z,188.77
2022-10-05T03:41:21.361Z,174.67
2022-10-05T03:44:20.518Z,180.27
2022-10-05T03:47:05.686Z,194.37
2022-10-05T03:49:48.657Z,208.40
2022-10-05T03:52:23.213Z,196.20
2022-10-05T03:54:56.963Z,182.30
2022-10-05T03:57:29.183Z,178.60
2022-10-05T04:00:05.355Z,178.63
2022-10-05T04:02:49.169Z,178.53
2022-10-05T04:05:21.714Z,177.70
2022-10-05T04:07:57.697Z,183.30
2022-10-05T04:10:29.331Z,176.23
2022-10-05T04:13:04.308Z,173.30
2022-10-05T04:15:40.237Z,183.50
2022-10-05T04:18:20.902Z,180.63
2022-10-05T04:20:55.384Z,188.80
2022-10-05T04:23:39.056Z,179.07
2022-10-05T04:26:11.824Z,200.93
2022-10-05T04:28:49.800Z,187.37
2022-10-05T04:31:40.379Z,192.63
2022-10-05T04:34:20.274Z,209.60
2022-10-05T04:36:56.804Z,223.30
2022-10-05T04:39:38.962Z,231.67
2022-10-05T04:42:17.645Z,258.53
2022-10-05T04:45:03.420Z,253.03
2022-10-05T04:47:55.714Z,266.63
2022-10-05T04:50:35.403Z,263.70
2022-10-05T04:53:19.507Z,263.03
2022-10-05T04:55:57.320Z,267.70
2022-10-05T04:58:42.268Z,270.00
2022-10-05T05:01:25.901Z,267.27
2022-10-05T05:04:13.266Z,302.77
2022-10-05T05:06:53.815Z,278.83
2022-10-05T05:09:45.239Z,257.63
2022-10-05T05:12:26.074Z,271.30
2022-10-05T05:15:13.757Z,233.07
2022-10-05T05:17:55.752Z,233.93
2022-10-05T05:20:32.352Z,227.17
2022-10-05T05:23:10.784Z,223.27
2022-10-05T05:25:48.405Z,261.70
2022-10-05T05:28:29.281Z,245.87
2022-10-05T05:31:06.580Z,258.60
2022-10-05T05:33:44.473Z,252.63
2022-10-05T05:36:29.569Z,260.30
2022-10-05T05:39:24.530Z,226.67
2022-10-05T05:42:01.554Z,222.93
2022-10-05T05:44:38.906Z,244.23
2022-10-05T05:47:19.073Z,211.77
2022-10-05T05:50:07.402Z,221.40
2022-10-05T05:52:42.724Z,250.13
2022-10-05T05:55:29.041Z,223.60
2022-10-05T05:58:56.066Z,232.73
2022-10-05T06:20:30.195Z,323.57
2022-10-05T06:23:42.813Z,276.27
2022-10-05T06:27:49.226Z,238.37
2022-10-05T06:31:11.308Z,248.40
2022-10-05T06:33:59.173Z,221.87
2022-10-05T06:36:46.823Z,180.93
2022-10-05T06:39:39.078Z,188.30
2022-10-05T06:42:26.637Z,191.90
2022-10-05T06:45:21.882Z,185.30
2022-10-05T06:48:08.012Z,171.87
2022-10-05T06:51:03.609Z,164.90
2022-10-05T06:53:56.879Z,181.57
2022-10-05T06:56:33.276Z,164.97
2022-10-05T06:59:10.416Z,196.40
2022-10-05T07:01:54.215Z,173.90
2022-10-05T07:04:43.806Z,151.50
2022-10-05T07:07:19.613Z,141.07
2022-10-05T07:09:59.924Z,149.20
2022-10-05T07:12:44.701Z,138.57
2022-10-05T07:15:41.084Z,131.07
2022-10-05T07:18:33.479Z,128.57
2022-10-05T07:21:10.964Z,126.33
2022-10-05T07:23:51.947Z,138.13
2022-10-05T07:26:32.356Z,148.87
2022-10-05T07:29:29.605Z,156.87
2022-10-05T07:32:07.883Z,200.00
2022-10-05T07:34:46.567Z,208.63
2022-10-05T07:37:38.426Z,282.93
2022-10-05T07:40:13.328Z,711.20
2022-10-05T07:43:04.121Z,965.67
2022-10-05T07:45:41.519Z,906.80
2022-10-05T07:48:18.073Z,772.17
2022-10-05T07:50:59.669Z,1678.60
2022-10-05T07:53:33.834Z,2266.67
2022-10-05T07:56:10.379Z,2266.67
2022-10-05T07:58:44.881Z,2266.67
2022-10-05T08:01:19.262Z,2266.67
2022-10-05T08:03:55.320Z,2266.67
2022-10-05T08:06:51.617Z,2266.67
2022-10-05T08:09:38.649Z,2266.67
2022-10-05T08:12:24.760Z,2266.67
2022-10-05T08:14:58.942Z,2266.67
2022-10-05T08:17:39.476Z,2266.67
2022-10-05T08:20:22.861Z,2266.67
2022-10-05T08:23:01.912Z,2266.67
2022-10-05T08:25:47.412Z,2266.67
2022-10-05T08:28:51.753Z,2266.67
2022-10-05T08:31:55.392Z,2266.67
2022-10-05T08:34:32.042Z,2266.67
2022-10-05T08:37:10.376Z,2266.67
2022-10-05T08:39:42.576Z,2266.67
2022-10-05T08:42:44.633Z,2266.67
2022-10-05T08:45:36.337Z,2266.67
2022-10-05T08:48:26.670Z,2266.67
2022-10-05T08:51:12.218Z,2266.67
2022-10-05T08:54:31.040Z,2266.67
2022-10-05T08:57:23.216Z,2266.67
2022-10-05T09:00:10.467Z,2266.67
2022-10-05T09:03:00.164Z,2266.67
2022-10-05T09:05:50.833Z,2266.67
2022-10-05T09:08:58.641Z,2266.67
2022-10-05T09:11:31.866Z,2266.67
2022-10-05T09:14:14.358Z,2266.67
2022-10-05T09:16:58.089Z,2266.67
2022-10-05T09:20:07.388Z,2266.67
2022-10-05T09:22:46.662Z,2266.67
2022-10-05T09:25:22.608Z,2266.67
2022-10-05T09:27:56.686Z,2266.67
2022-10-05T09:30:48.616Z,2266.67
2022-10-05T09:33:47.480Z,2266.67
2022-10-05T09:37:06.891Z,2266.67
2022-10-05T09:40:08.592Z,2266.67
2022-10-05T09:43:11.374Z,2266.67
2022-10-05T09:45:59.063Z,2266.67
2022-10-05T09:49:02.251Z,2266.67
2022-10-05T09:52:18.755Z,2266.67
2022-10-05T09:55:19.955Z,2266.67
2022-10-05T09:58:28.313Z,2266.67
2022-10-05T10:01:32.625Z,2266.67
2022-10-05T10:04:24.716Z,2266.67
2022-10-05T10:07:26.558Z,2266.67
2022-10-05T10:10:21.359Z,2266.67
2022-10-05T10:13:13.740Z,2266.67
2022-10-05T10:16:04.899Z,2266.67
2022-10-05T10:19:15.156Z,2266.67
2022-10-05T10:22:06.798Z,2266.67
2022-10-05T10:24:54.685Z,2266.67
2022-10-05T10:27:51.576Z,2266.67
2022-10-05T10:30:47.625Z,2266.67
2022-10-05T10:33:55.851Z,2266.67
2022-10-05T10:36:43.916Z,2266.67
2022-10-05T10:39:22.020Z,2266.67
2022-10-05T10:42:26.455Z,2266.67
2022-10-05T10:45:06.632Z,2266.67
2022-10-05T10:48:02.130Z,2266.67
2022-10-05T10:51:07.525Z,2266.67
2022-10-05T10:54:12.135Z,2266.67
2022-10-05T10:56:51.862Z,2266.67
2022-10-05T10:59:44.835Z,2266.67
2022-10-05T11:02:50.975Z,2266.67
2022-10-05T11:05:33.392Z,2266.67
2022-10-05T11:08:39.557Z,2266.67
2022-10-05T11:11:36.234Z,2266.67
2022-10-05T11:14:24.144Z,2266.67
2022-10-05T11:17:20.320Z,2266.67
2022-10-05T11:20:04.555Z,2266.67
2022-10-05T11:22:55.447Z,2266.67
2022-10-05T11:25:56.345Z,2266.67
2022-10-05T11:28:41.755Z,2266.67
2022-10-05T11:31:37.760Z,2266.67
2022-10-05T11:34:39.401Z,2266.67
2022-10-05T11:37:31.788Z,2266.67
2022-10-05T11:40:41.234Z,2266.67
2022-10-05T11:43:48.452Z,2266.67
2022-10-05T11:46:23.296Z,2266.67
2022-10-05T11:49:02.298Z,2266.67
2022-10-05T11:51:39.353Z,2266.67
2022-10-05T11:54:26.277Z,2266.67
2022-10-05T11:57:00.556Z,2266.67
2022-10-05T11:59:35.631Z,2266.67
2022-10-05T12:02:18.307Z,2266.67
2022-10-05T12:04:53.928Z,2266.67
2022-10-05T12:07:29.426Z,2266.67
2022-10-05T12:10:29.064Z,2266.67
2022-10-05T12:13:11.042Z,2266.67
2022-10-05T12:15:51.298Z,2266.67
2022-10-05T12:18:24.930Z,2266.67
2022-10-05T12:21:01.226Z,2266.67
2022-10-05T12:23:37.868Z,2266.67
2022-10-05T12:26:16.668Z,2266.67
2022-10-05T12:28:48.607Z,2266.67
2022-10-05T12:31:36.934Z,2266.67
2022-10-05T12:34:16.949Z,2266.67
2022-10-05T12:37:04.184Z,2266.67
2022-10-05T12:39:42.471Z,2266.67
2022-10-05T12:42:32.363Z,2266.67
2022-10-05T12:45:49.235Z,2266.67
2022-10-05T12:48:37.469Z,2266.67
2022-10-05T12:51:15.577Z,2266.67
2022-10-05T12:53:53.835Z,2266.67
2022-10-05T12:56:33.974Z,2266.67
2022-10-05T12:59:14.269Z,2266.67
2022-10-05T13:01:48.175Z,2266.67
2022-10-05T13:04:25.774Z,2266.67
2022-10-05T13:07:14.695Z,2266.67
2022-10-05T13:09:49.978Z,2266.67
2022-10-05T13:12:35.387Z,2266.67
2022-10-05T13:15:15.605Z,2266.67
2022-10-05T13:17:51.319Z,2266.67
2022-10-05T13:20:28.071Z,2266.67
2022-10-05T13:23:03.205Z,2266.67
2022-10-05T13:25:35.788Z,2266.67
2022-10-05T13:28:17.294Z,2266.67
2022-10-05T13:30:58.829Z,2266.67
2022-10-05T13:33:41.539Z,2266.67
2022-10-05T13:36:17.284Z,2266.67
2022-10-05T13:38:58.519Z,2266.67
2022-10-05T13:41:39.206Z,2266.67
2022-10-05T13:44:19.909Z,2266.67
2022-10-05T13:46:56.270Z,2266.67
2022-10-05T13:49:28.945Z,2266.67
2022-10-05T13:52:07.595Z,2266.67
2022-10-05T13:54:43.895Z,2266.67
2022-10-05T13:57:22.494Z,2266.67
2022-10-05T13:59:54.934Z,2266.67
2022-10-05T14:02:29.645Z,2266.67
2022-10-05T14:05:02.864Z,2266.67
2022-10-05T14:07:34.310Z,2266.67
2022-10-05T14:10:04.610Z,2266.67
2022-10-05T14:12:41.233Z,2266.67
2022-10-05T14:15:22.194Z,2266.67
2022-10-05T14:17:52.729Z,2266.67
2022-10-05T14:20:25.664Z,2266.67
2022-10-05T14:22:58.312Z,2266.67
2022-10-05T14:25:28.245Z,2266.67
2022-10-05T14:28:25.265Z,2266.67
2022-10-05T14:30:59.489Z,2266.67
2022-10-05T14:33:31.200Z,2266.67
2022-10-05T14:36:00.204Z,2266.67
2022-10-05T14:38:30.295Z,2266.67
2022-10-05T14:41:15.828Z,2266.67
2022-10-05T14:43:53.375Z,2266.67
2022-10-05T14:46:28.288Z,2266.67
2022-10-05T14:49:18.040Z,2266.67
2022-10-05T14:51:46.260Z,2266.67
2022-10-05T14:54:25.731Z,2266.67
2022-10-05T14:57:05.036Z,2266.67
2022-10-05T15:00:00.243Z,2266.67
2022-10-05T15:02:52.470Z,2266.67
2022-10-05T15:05:31.258Z,2266.67
2022-10-05T15:08:08.655Z,2266.67
2022-10-05T15:10:43.509Z,2266.67
2022-10-05T15:13:17.252Z,2266.67
2022-10-05T15:15:51.970Z,2266.67
2022-10-05T15:18:32.014Z,2266.67
2022-10-05T15:21:17.308Z,2266.67
2022-10-05T15:23:53.207Z,2266.67
2022-10-05T15:26:37.216Z,2266.67
2022-10-05T15:29:16.194Z,2266.67
2022-10-05T15:31:52.957Z,2266.67
2022-10-05T15:34:27.857Z,2266.67
2022-10-05T15:37:08.189Z,2266.67
2022-10-05T15:39:41.502Z,2266.67
2022-10-05T15:42:15.200Z,2266.67
2022-10-05T15:44:54.028Z,2266.67
2022-10-05T15:47:26.790Z,2266.67
2022-10-05T15:50:03.390Z,2266.67
2022-10-05T15:52:38.616Z,2266.67
2022-10-05T15:55:35.179Z,2266.67
2022-10-05T15:58:38.699Z,2266.67
2022-10-05T16:01:12.518Z,2266.67
2022-10-05T16:03:49.808Z,2266.67
2022-10-05T16:06:44.828Z,2266.67
2022-10-05T16:09:34.398Z,2266.67
2022-10-05T16:12:14.899Z,2266.67
2022-10-05T16:15:06.479Z,2266.67
2022-10-05T16:17:48.011Z,2266.67
2022-10-05T16:20:30.240Z,2266.67
2022-10-05T16:23:07.936Z,1864.83
2022-10-05T16:25:46.204Z,1190.43
2022-10-05T16:28:29.135Z,2167.07
2022-10-05T16:31:03.854Z,2241.73
2022-10-05T16:33:54.286Z,2266.67
2022-10-05T16:36:36.830Z,2266.67
2022-10-05T16:39:12.816Z,1921.70
2022-10-05T16:41:50.102Z,1461.70
2022-10-05T16:44:29.370Z,1518.90
2022-10-05T16:47:04.059Z,2266.67
2022-10-05T16:49:44.508Z,2121.60
2022-10-05T16:52:18.901Z,2266.67
2022-10-05T16:54:53.371Z,1734.13
2022-10-05T16:57:25.444Z,973.23
2022-10-05T17:00:13.427Z,2140.77
2022-10-05T17:02:56.701Z,1865.07
2022-10-05T17:05:44.953Z,1096.77
2022-10-05T17:08:36.600Z,732.60
2022-10-05T17:11:16.666Z,483.00
2022-10-05T17:14:11.144Z,302.63
2022-10-05T17:16:52.581Z,321.00
2022-10-05T17:19:42.995Z,297.07
2022-10-05T17:22:21.506Z,297.03
2022-10-05T17:24:59.029Z,291.10
2022-10-05T17:27:35.246Z,306.87
2022-10-05T17:30:39.183Z,224.77
2022-10-05T17:33:23.091Z,303.10
2022-10-05T17:36:12.431Z,258.40
2022-10-05T17:38:49.115Z,240.80
2022-10-05T17:41:25.051Z,226.07
2022-10-05T17:44:21.234Z,216.10
2022-10-05T17:46:52.554Z,329.70
2022-10-05T17:49:24.091Z,326.13
2022-10-05T17:52:22.679Z,267.03
2022-10-05T17:55:26.619Z,641.40
2022-10-05T17:58:00.571Z,811.80
2022-10-05T18:01:07.015Z,992.13
2022-10-05T18:03:40.902Z,816.17
2022-10-05T18:06:37.199Z,503.23
2022-10-05T18:09:39.062Z,608.57
2022-10-05T18:12:29.174Z,698.57
2022-10-05T18:15:01.534Z,778.23
2022-10-05T18:17:45.071Z,659.93
2022-10-05T18:20:42.778Z,678.30
2022-10-05T18:23:35.624Z,625.60
2022-10-05T18:26:09.157Z,445.30
2022-10-05T18:28:51.464Z,276.57
2022-10-05T18:31:31.975Z,246.90
2022-10-05T18:34:28.223Z,309.43
2022-10-05T18:37:10.202Z,307.27
2022-10-05T18:40:01.576Z,294.70
2022-10-05T18:42:38.825Z,276.70
2022-10-05T18:45:23.303Z,260.90
2022-10-05T18:48:07.693Z,318.93
2022-10-05T18:50:44.397Z,327.27
2022-10-05T18:53:27.137Z,226.93
2022-10-05T18:56:02.221Z,187.20
2022-10-05T18:58:37.053Z,299.83
2022-10-05T19:01:26.935Z,611.17
2022-10-05T19:04:05.931Z,489.30
2022-10-05T19:06:44.414Z,417.27
2022-10-05T19:09:26.177Z,283.90
2022-10-05T19:12:02.375Z,202.97
2022-10-05T19:15:06.953Z,168.67
2022-10-05T19:17:55.544Z,169.43
2022-10-05T19:20:30.599Z,151.07
2022-10-05T19:23:14.969Z,176.00
2022-10-05T19:25:53.076Z,166.13
2022-10-05T19:28:31.112Z,187.97
2022-10-05T19:31:14.547Z,207.90
2022-10-05T19:33:56.690Z,190.80
2022-10-05T19:36:45.365Z,205.13
2022-10-05T19:39:22.454Z,185.77
2022-10-05T19:42:07.893Z,174.70
2022-10-05T19:44:48.543Z,179.67
2022-10-05T19:47:28.273Z,170.27
2022-10-05T19:50:19.575Z,196.80
2022-10-05T19:52:52.239Z,184.07
2022-10-05T19:55:27.231Z,186.17
2022-10-05T19:58:01.232Z,182.80
2022-10-05T20:00:32.245Z,203.63
2022-10-05T20:03:12.992Z,193.20
2022-10-05T20:05:41.725Z,174.93
2022-10-05T20:08:17.021Z,169.00
2022-10-05T20:10:47.510Z,176.00
2022-10-05T20:13:22.682Z,188.47
2022-10-05T20:16:35.767Z,168.27
2022-10-05T20:19:22.781Z,172.70
2022-10-05T20:21:52.701Z,171.70
2022-10-05T20:24:22.341Z,166.93
2022-10-05T20:27:06.086Z,179.23
2022-10-05T20:29:37.878Z,162.37
2022-10-05T20:32:09.801Z,185.30
2022-10-05T20:34:41.299Z,164.90
2022-10-05T20:37:10.524Z,177.57
2022-10-05T20:39:39.278Z,172.67
2022-10-05T20:42:08.383Z,164.80
2022-10-05T20:44:38.808Z,166.83
2022-10-05T20:47:08.803Z,170.73
2022-10-05T20:49:40.996Z,182.70
2022-10-05T20:52:11.306Z,187.20
2022-10-05T20:54:40.327Z,160.10
2022-10-05T20:57:09.179Z,160.03
2022-10-05T20:59:38.735Z,177.17
2022-10-05T21:02:07.181Z,162.60
2022-10-05T21:04:42.921Z,169.83
2022-10-05T21:07:11.293Z,159.30
2022-10-05T21:09:40.922Z,155.23
2022-10-05T21:12:09.437Z,157.60
2022-10-05T21:14:40.557Z,173.57
2022-10-05T21:17:09.488Z,170.77
2022-10-05T21:19:40.487Z,156.60
2022-10-05T21:22:10.272Z,172.77
2022-10-05T21:24:39.485Z,167.13
2022-10-05T21:27:09.590Z,183.10
2022-10-05T21:29:41.030Z,188.50
2022-10-05T21:32:11.858Z,164.40
2022-10-05T21:34:40.657Z,180.67
2022-10-05T21:37:09.237Z,173.73
2022-10-05T21:39:37.352Z,175.90
2022-10-05T21:42:05.686Z,172.50
2022-10-05T21:44:33.830Z,169.80
2022-10-05T21:47:04.278Z,156.90
2022-10-05T21:49:32.690Z,170.00
2022-10-05T21:52:02.368Z,156.40
2022-10-05T21:54:30.789Z,172.27
2022-10-05T21:57:00.094Z,161.13
2022-10-05T21:59:32.306Z,166.33
2022-10-05T22:02:00.807Z,166.70
2022-10-05T22:04:30.353Z,152.60
2022-10-05T22:06:58.683Z,151.37
2022-10-05T22:09:27.162Z,165.30
2022-10-05T22:11:55.395Z,170.60
2022-10-05T22:14:23.928Z,172.37
2022-10-05T22:16:53.309Z,173.47
2022-10-05T22:19:21.785Z,177.43
2022-10-05T22:21:51.582Z,191.90
2022-10-05T22:24:19.840Z,203.50
2022-10-05T22:26:51.446Z,215.10
2022-10-05T22:29:20.374Z,216.33
2022-10-05T22:31:49.304Z,220.60
2022-10-05T22:34:18.166Z,204.97
2022-10-05T22:36:47.460Z,210.17
2022-10-05T22:39:17.303Z,195.67
2022-10-05T22:41:45.538Z,219.43
2022-10-05T22:44:13.760Z,237.40
2022-10-05T22:46:41.960Z,232.57
2022-10-05T22:49:10.034Z,242.17
2022-10-05T22:51:38.267Z,280.80
2022-10-05T22:54:07.082Z,297.13
2022-10-05T22:56:36.594Z,253.37
2022-10-05T22:59:04.905Z,232.00
2022-10-05T23:01:33.230Z,210.80
2022-10-05T23:04:01.512Z,199.33
2022-10-05T23:06:29.727Z,208.30
2022-10-05T23:08:57.976Z,207.73
2022-10-05T23:11:28.124Z,227.27
2022-10-05T23:13:58.593Z,249.77
2022-10-05T23:16:28.673Z,309.83
2022-10-05T23:18:57.493Z,383.80
2022-10-05T23:21:28.903Z,403.77
2022-10-05T23:23:56.937Z,388.83
2022-10-05T23:26:26.168Z,381.17
2022-10-05T23:28:54.923Z,338.63
2022-10-05T23:31:26.828Z,318.57
2022-10-05T23:33:55.153Z,282.63
2022-10-05T23:36:26.292Z,223.23
2022-10-05T23:38:54.961Z,201.10
2022-10-05T23:41:23.661Z,199.17
2022-10-05T23:43:54.674Z,192.43
2022-10-05T23:46:24.463Z,182.83
2022-10-05T23:48:53.126Z,209.37
2022-10-05T23:51:21.464Z,183.10
2022-10-05T23:53:49.625Z,209.67
2022-10-05T23:56:17.837Z,213.97
2022-10-05T23:58:46.148Z,208.37
